Time;durP1;ratioP1;P1;durP2;ratioP2;P2;SDS_P1;SDS_P2;PMS_P1;PMS_P2;Temp;Humidity;BMP_temperature;BMP_pressure;BME280_temperature;BME280_humidity;BME280_pressure;Samples;Min_cycle;Max_cycle;Signal;HPM_P1;HPM_P2
2022/11/29 00:00:53;;;;;;;0.63;0.63;;;5.70;82.70;;;;;;4952040;28;20187;-70
2022/11/29 00:03:19;;;;;;;1.13;0.60;;;5.70;82.80;;;;;;4958035;28;20190;-70
2022/11/29 00:05:44;;;;;;;0.60;0.60;;;5.70;82.90;;;;;;4950889;28;20870;-69
2022/11/29 00:08:11;;;;;;;0.40;0.40;;;5.60;82.80;;;;;;4957892;28;20217;-69
2022/11/29 00:10:37;;;;;;;1.23;0.70;;;5.60;82.80;;;;;;4950289;28;20281;-69
2022/11/29 00:13:03;;;;;;;2.20;0.60;;;5.60;82.70;;;;;;4950684;28;20274;-69
2022/11/29 00:15:29;;;;;;;0.57;0.57;;;5.60;82.70;;;;;;4949452;28;20594;-69
2022/11/29 00:17:55;;;;;;;1.10;1.10;;;5.60;82.70;;;;;;4953586;28;20681;-70
2022/11/29 00:20:21;;;;;;;1.13;0.70;;;5.60;82.80;;;;;;4954591;28;20186;-69
2022/11/29 00:22:46;;;;;;;0.57;0.57;;;5.60;82.70;;;;;;4951175;28;20266;-68
2022/11/29 00:25:12;;;;;;;0.33;0.33;;;5.60;82.90;;;;;;4953868;28;20191;-69
2022/11/29 00:27:38;;;;;;;0.50;0.50;;;5.60;82.80;;;;;;4950613;28;20216;-70
2022/11/29 00:30:04;;;;;;;0.50;0.50;;;5.60;82.80;;;;;;4954240;28;20608;-69
2022/11/29 00:32:30;;;;;;;0.83;0.83;;;5.60;82.70;;;;;;4950364;28;20560;-69
2022/11/29 00:34:55;;;;;;;0.50;0.50;;;5.60;82.70;;;;;;4951338;28;20190;-68
2022/11/29 00:37:21;;;;;;;0.97;0.70;;;5.60;82.70;;;;;;4954322;28;20194;-68
2022/11/29 00:39:46;;;;;;;0.40;0.40;;;5.60;82.70;;;;;;4947017;28;20275;-69
2022/11/29 00:42:12;;;;;;;0.50;0.50;;;5.60;82.60;;;;;;4951719;28;20223;-70
2022/11/29 00:44:38;;;;;;;0.47;0.47;;;5.60;82.60;;;;;;4954566;28;20184;-70
2022/11/29 00:47:03;;;;;;;0.90;0.40;;;5.70;82.60;;;;;;4950598;28;20229;-68
2022/11/29 00:49:29;;;;;;;0.50;0.50;;;5.70;82.60;;;;;;4950879;28;20190;-70
2022/11/29 00:51:55;;;;;;;0.50;0.50;;;5.70;82.40;;;;;;4948891;28;20190;-69
2022/11/29 00:54:20;;;;;;;0.70;0.50;;;5.70;82.30;;;;;;4948388;28;20189;-70
2022/11/29 00:56:46;;;;;;;0.50;0.50;;;5.70;82.30;;;;;;4949691;28;20191;-70
2022/11/29 00:59:12;;;;;;;0.50;0.50;;;5.70;82.30;;;;;;4951143;28;20312;-70
2022/11/29 01:01:37;;;;;;;0.40;0.40;;;5.70;82.30;;;;;;4953211;28;20186;-70
2022/11/29 01:04:03;;;;;;;0.30;0.30;;;5.80;82.30;;;;;;4949396;28;20190;-70
2022/11/29 01:06:29;;;;;;;0.60;0.50;;;5.80;82.20;;;;;;4950283;28;20274;-70
2022/11/29 01:08:54;;;;;;;0.47;0.47;;;5.80;82.20;;;;;;4951543;28;20179;-69
2022/11/29 01:11:23;;;;;;;0.63;0.40;;;5.80;82.20;;;;;;4946770;28;20653;-68
2022/11/29 01:13:55;;;;;;;0.47;0.47;;;5.80;82.20;;;;;;4947712;28;20707;-70
2022/11/29 01:16:21;;;;;;;0.50;0.50;;;5.80;82.10;;;;;;4953941;28;20562;-69
2022/11/29 01:18:46;;;;;;;0.50;0.50;;;5.80;82.10;;;;;;4950971;28;20198;-69
2022/11/29 01:21:15;;;;;;;0.40;0.40;;;5.80;82.00;;;;;;4945182;28;20254;-69
2022/11/29 01:23:42;;;;;;;0.73;0.60;;;5.80;82.10;;;;;;4951328;28;20668;-70
2022/11/29 01:26:11;;;;;;;1.23;0.70;;;5.80;82.00;;;;;;4953267;28;20215;-70
2022/11/29 01:28:37;;;;;;;0.50;0.50;;;5.80;82.00;;;;;;4949113;28;20210;-70
2022/11/29 01:31:12;;;;;;;1.20;0.60;;;5.80;82.10;;;;;;4950206;28;20190;-71
2022/11/29 01:33:38;;;;;;;0.70;0.70;;;5.80;82.00;;;;;;4952009;28;20182;-70
2022/11/29 01:36:05;;;;;;;0.50;0.50;;;5.80;82.10;;;;;;4951215;28;20198;-70
2022/11/29 01:38:31;;;;;;;0.80;0.80;;;5.80;82.10;;;;;;4947717;28;20195;-70
2022/11/29 01:41:03;;;;;;;0.50;0.50;;;5.80;82.10;;;;;;4954888;28;20197;-70
2022/11/29 01:43:30;;;;;;;0.80;0.80;;;5.80;82.10;;;;;;4947730;28;20266;-69
2022/11/29 01:45:56;;;;;;;2.77;0.90;;;5.80;82.20;;;;;;4952695;28;20278;-69
2022/11/29 01:48:27;;;;;;;0.70;0.70;;;5.80;82.20;;;;;;4950318;28;20178;-69
2022/11/29 01:50:56;;;;;;;0.93;0.93;;;5.80;82.10;;;;;;4949170;28;20206;-70
2022/11/29 01:53:22;;;;;;;1.30;0.50;;;5.80;82.20;;;;;;4955406;28;20269;-69
2022/11/29 01:55:52;;;;;;;0.70;0.70;;;5.80;82.20;;;;;;4954173;28;20273;-68
2022/11/29 01:58:19;;;;;;;0.50;0.50;;;5.80;82.20;;;;;;4951753;28;20185;-71
2022/11/29 02:00:45;;;;;;;0.80;0.80;;;5.80;82.20;;;;;;4950144;28;20190;-70
2022/11/29 02:03:13;;;;;;;0.50;0.50;;;5.80;82.20;;;;;;4950482;28;20225;-68
2022/11/29 02:05:43;;;;;;;0.60;0.60;;;5.80;82.10;;;;;;4950728;28;20225;-69
2022/11/29 02:08:12;;;;;;;0.53;0.53;;;5.80;82.10;;;;;;4947652;28;20930;-68
2022/11/29 02:11:26;;;;;;;0.60;0.60;;;5.80;82.10;;;;;;4951714;28;20179;-69
2022/11/29 02:14:18;;;;;;;0.47;0.47;;;5.80;81.90;;;;;;4947054;28;20195;-68
2022/11/29 02:17:00;;;;;;;1.30;0.57;;;5.80;81.90;;;;;;4948798;28;20196;-70
2022/11/29 02:19:29;;;;;;;0.40;0.40;;;5.70;82.00;;;;;;4948131;28;20194;-69
2022/11/29 02:22:01;;;;;;;0.50;0.50;;;5.70;82.10;;;;;;4944365;28;20720;-69
2022/11/29 02:24:45;;;;;;;0.53;0.53;;;5.70;82.00;;;;;;4944748;28;20183;-69
2022/11/29 02:27:42;;;;;;;0.57;0.57;;;5.70;81.80;;;;;;4954625;28;20224;-69
2022/11/29 02:30:22;;;;;;;0.90;0.50;;;5.70;81.90;;;;;;4953401;28;20186;-69
2022/11/29 02:32:51;;;;;;;0.80;0.80;;;5.70;82.00;;;;;;4951390;28;20618;-69
2022/11/29 02:35:34;;;;;;;2.60;0.50;;;5.70;82.00;;;;;;4950690;28;20179;-68
2022/11/29 02:38:12;;;;;;;0.63;0.60;;;5.70;82.00;;;;;;4954394;28;20186;-69
2022/11/29 02:40:53;;;;;;;0.63;0.63;;;5.70;81.90;;;;;;4955416;28;20190;-68
2022/11/29 02:43:28;;;;;;;0.80;0.80;;;5.70;82.00;;;;;;4954212;28;20289;-69
2022/11/29 02:45:59;;;;;;;0.50;0.50;;;5.70;82.10;;;;;;4954632;28;20778;-69
2022/11/29 02:48:43;;;;;;;0.73;0.73;;;5.70;82.10;;;;;;4951369;28;20599;-69
2022/11/29 02:51:38;;;;;;;0.50;0.50;;;5.70;82.00;;;;;;4954061;28;21022;-68
2022/11/29 02:54:32;;;;;;;0.60;0.60;;;5.70;82.00;;;;;;4952123;28;20245;-69
2022/11/29 02:57:13;;;;;;;0.60;0.60;;;5.70;82.00;;;;;;4874828;29;20186;-70
2022/11/29 02:59:47;;;;;;;1.03;0.70;;;5.70;82.00;;;;;;4874793;29;20208;-69
2022/11/29 03:02:32;;;;;;;0.67;0.63;;;5.70;82.10;;;;;;4871728;29;20337;-70
2022/11/29 03:05:22;;;;;;;0.53;0.53;;;5.70;82.10;;;;;;4875667;29;20325;-70
2022/11/29 03:07:47;;;;;;;0.60;0.60;;;5.70;82.00;;;;;;4876397;29;20337;-70
2022/11/29 03:10:32;;;;;;;0.60;0.53;;;5.70;82.20;;;;;;4874570;29;20683;-70
2022/11/29 03:13:02;;;;;;;0.43;0.43;;;5.70;82.10;;;;;;4869885;29;20229;-70
2022/11/29 03:16:01;;;;;;;0.50;0.50;;;5.70;82.10;;;;;;4873321;29;20202;-70
2022/11/29 03:18:36;;;;;;;0.40;0.40;;;5.70;82.10;;;;;;4869442;29;20667;-69
2022/11/29 03:21:26;;;;;;;0.80;0.77;;;5.70;82.20;;;;;;4871843;29;20197;-69
2022/11/29 03:24:02;;;;;;;0.27;0.27;;;5.70;82.10;;;;;;4877053;29;20377;-66
2022/11/29 03:26:40;;;;;;;1.07;0.53;;;5.70;82.20;;;;;;4873398;29;20256;-68
2022/11/29 03:29:13;;;;;;;0.50;0.50;;;5.70;82.10;;;;;;4856117;29;20285;-70
2022/11/29 03:32:03;;;;;;;0.53;0.50;;;5.70;82.20;;;;;;4853198;29;20197;-68
2022/11/29 03:34:50;;;;;;;0.63;0.40;;;5.70;82.20;;;;;;4927179;28;20222;-68
2022/11/29 03:37:24;;;;;;;0.40;0.40;;;5.70;82.30;;;;;;4955412;28;20190;-71
2022/11/29 03:40:14;;;;;;;0.30;0.30;;;5.70;82.30;;;;;;4953803;28;20191;-70
2022/11/29 03:42:56;;;;;;;0.40;0.40;;;5.70;82.10;;;;;;4957641;28;20672;-68
2022/11/29 03:45:44;;;;;;;0.40;0.40;;;5.70;82.20;;;;;;4947919;28;20194;-68
2022/11/29 03:48:18;;;;;;;0.70;0.70;;;5.70;82.10;;;;;;4953521;28;20313;-69
2022/11/29 03:50:55;;;;;;;0.97;0.60;;;5.70;82.30;;;;;;4953249;28;20256;-69
2022/11/29 03:53:36;;;;;;;0.40;0.40;;;5.70;82.20;;;;;;4951180;28;20226;-69
2022/11/29 03:56:21;;;;;;;0.50;0.50;;;5.70;82.20;;;;;;4956792;28;20212;-69
2022/11/29 03:59:11;;;;;;;0.40;0.40;;;5.70;82.30;;;;;;4954962;28;20250;-69
2022/11/29 04:01:54;;;;;;;0.40;0.40;;;5.70;82.30;;;;;;4953016;28;20179;-70
2022/11/29 04:04:53;;;;;;;0.30;0.30;;;5.70;82.40;;;;;;4951434;28;20183;-69
2022/11/29 04:07:22;;;;;;;0.40;0.40;;;5.70;82.30;;;;;;4950662;28;20222;-69
2022/11/29 04:10:08;;;;;;;0.33;0.33;;;5.70;82.60;;;;;;4952226;28;20258;-69
2022/11/29 04:12:46;;;;;;;0.30;0.30;;;5.70;82.30;;;;;;4949158;28;20182;-69
2022/11/29 04:15:46;;;;;;;0.40;0.40;;;5.70;82.40;;;;;;4951773;28;20182;-69
2022/11/29 04:19:00;;;;;;;0.47;0.47;;;5.70;82.30;;;;;;4955358;28;20234;-70
2022/11/29 04:21:25;;;;;;;0.50;0.50;;;5.60;82.30;;;;;;4876733;29;20758;-68
2022/11/29 04:24:21;;;;;;;1.07;0.70;;;5.60;82.60;;;;;;4877007;29;20188;-70
2022/11/29 04:27:11;;;;;;;0.50;0.50;;;5.60;82.30;;;;;;4884261;29;20275;-70
2022/11/29 04:30:04;;;;;;;1.77;0.53;;;5.60;82.60;;;;;;4880969;29;20196;-70
2022/11/29 04:33:06;;;;;;;0.50;0.50;;;5.50;82.50;;;;;;4881985;29;20209;-69
2022/11/29 04:35:51;;;;;;;0.70;0.70;;;5.50;82.60;;;;;;4878685;29;20193;-69
2022/11/29 04:38:34;;;;;;;0.87;0.40;;;5.60;82.80;;;;;;4875983;29;20197;-70
2022/11/29 04:41:22;;;;;;;0.30;0.30;;;5.60;82.70;;;;;;4878559;29;20224;-70
2022/11/29 04:44:09;;;;;;;0.60;0.57;;;5.60;82.60;;;;;;4877604;29;20698;-68
2022/11/29 04:46:59;;;;;;;0.30;0.30;;;5.60;82.80;;;;;;4883533;29;20269;-69
2022/11/29 04:49:36;;;;;;;0.40;0.40;;;5.60;82.70;;;;;;4882106;29;20225;-69
2022/11/29 04:52:30;;;;;;;0.40;0.33;;;5.60;82.80;;;;;;4879632;29;20339;-70
2022/11/29 04:55:03;;;;;;;0.50;0.50;;;5.60;82.70;;;;;;4876997;29;20199;-70
2022/11/29 04:57:32;;;;;;;0.40;0.40;;;5.60;82.80;;;;;;4907475;28;20252;-70
2022/11/29 05:00:11;;;;;;;0.40;0.40;;;5.60;82.90;;;;;;4947020;28;20209;-71
2022/11/29 05:02:57;;;;;;;0.60;0.60;;;5.60;82.80;;;;;;4949580;28;20578;-71
2022/11/29 05:05:47;;;;;;;1.10;0.50;;;5.60;82.80;;;;;;4947066;28;20193;-71
2022/11/29 05:08:25;;;;;;;0.40;0.40;;;5.60;83.00;;;;;;4950249;28;20704;-71
2022/11/29 05:11:02;;;;;;;0.60;0.60;;;5.60;82.90;;;;;;4946592;28;20191;-71
2022/11/29 05:13:33;;;;;;;0.70;0.70;;;5.50;82.90;;;;;;4950233;28;20194;-73
2022/11/29 05:16:10;;;;;;;0.60;0.60;;;5.60;83.00;;;;;;4953580;28;20187;-73
2022/11/29 05:19:20;;;;;;;0.93;0.87;;;5.60;83.20;;;;;;4950273;28;20330;-74
2022/11/29 05:22:19;;;;;;;0.80;0.80;;;5.60;83.00;;;;;;4884123;29;20197;-74
2022/11/29 05:25:06;;;;;;;1.43;1.33;;;5.60;83.10;;;;;;4884024;29;20189;-73
2022/11/29 05:27:51;;;;;;;0.93;0.93;;;5.60;83.10;;;;;;4880125;29;20240;-74
2022/11/29 05:30:27;;;;;;;1.00;1.00;;;5.60;83.30;;;;;;4881754;29;20193;-74
2022/11/29 05:33:03;;;;;;;1.60;0.77;;;5.60;83.30;;;;;;4885219;29;20315;-74
2022/11/29 05:36:04;;;;;;;1.40;1.30;;;5.60;83.40;;;;;;4891630;29;20192;-76
2022/11/29 05:38:47;;;;;;;0.73;0.73;;;5.50;83.30;;;;;;4850359;29;20692;-74
2022/11/29 05:41:34;;;;;;;0.90;0.90;;;5.60;83.50;;;;;;4845955;29;20296;-74
2022/11/29 05:44:26;;;;;;;0.83;0.83;;;5.60;83.40;;;;;;4843564;29;20253;-73
2022/11/29 05:46:57;;;;;;;1.17;1.03;;;5.60;83.40;;;;;;4845844;29;20740;-72
2022/11/29 05:49:49;;;;;;;0.93;0.93;;;5.60;83.50;;;;;;4847584;29;20203;-74
2022/11/29 05:52:40;;;;;;;1.37;1.07;;;5.60;83.40;;;;;;4845279;29;20217;-73
2022/11/29 05:55:39;;;;;;;1.00;1.00;;;5.60;83.50;;;;;;4844912;29;20421;-71
2022/11/29 05:58:20;;;;;;;1.37;1.10;;;5.60;83.50;;;;;;4875790;29;20616;-73
2022/11/29 06:01:39;;;;;;;0.97;0.97;;;5.60;83.50;;;;;;4911912;29;20204;-74
2022/11/29 06:04:23;;;;;;;1.50;0.83;;;5.60;83.60;;;;;;4864351;29;20412;-73
2022/11/29 06:07:09;;;;;;;3.07;1.30;;;5.60;83.70;;;;;;4864849;29;20245;-74
2022/11/29 06:09:42;;;;;;;3.60;1.20;;;5.60;83.60;;;;;;4867114;29;20197;-73
2022/11/29 06:12:33;;;;;;;1.10;1.10;;;5.60;83.70;;;;;;4874872;29;20197;-74
2022/11/29 06:15:17;;;;;;;2.20;1.40;;;5.70;83.60;;;;;;4886232;29;20193;-73
2022/11/29 06:18:05;;;;;;;1.00;1.00;;;5.70;83.70;;;;;;4887837;29;20189;-74
2022/11/29 06:20:33;;;;;;;0.80;0.80;;;5.70;83.60;;;;;;4886880;29;22453;-74
2022/11/29 06:23:05;;;;;;;0.80;0.80;;;5.70;83.70;;;;;;4887621;29;20782;-73
2022/11/29 06:25:41;;;;;;;0.80;0.80;;;5.80;83.60;;;;;;4886766;29;20188;-73
2022/11/29 06:28:18;;;;;;;1.20;1.10;;;5.80;83.80;;;;;;4888157;29;20351;-74
2022/11/29 06:31:10;;;;;;;1.67;1.50;;;5.80;83.80;;;;;;4884371;29;20189;-74
2022/11/29 06:33:55;;;;;;;1.03;0.83;;;5.90;83.80;;;;;;4887302;29;20207;-74
2022/11/29 06:36:37;;;;;;;1.10;1.10;;;5.90;83.70;;;;;;4887851;29;20192;-74
2022/11/29 06:39:03;;;;;;;0.87;0.60;;;5.90;83.70;;;;;;4914242;28;20199;-74
2022/11/29 06:41:29;;;;;;;1.10;1.10;;;6.00;83.80;;;;;;4956330;28;20195;-75
2022/11/29 06:43:55;;;;;;;1.43;1.33;;;6.00;83.60;;;;;;4955507;28;20175;-74
2022/11/29 06:46:38;;;;;;;2.13;1.40;;;6.10;83.60;;;;;;4955228;28;20595;-74
2022/11/29 06:49:15;;;;;;;1.13;1.13;;;6.10;83.50;;;;;;4956156;28;20183;-74
2022/11/29 06:52:02;;;;;;;1.27;1.23;;;6.10;83.30;;;;;;4959301;28;20190;-74
2022/11/29 06:54:43;;;;;;;2.70;1.30;;;6.20;83.30;;;;;;4942116;28;20289;-74
2022/11/29 06:57:21;;;;;;;2.20;1.43;;;6.20;83.20;;;;;;4957811;28;20307;-74
2022/11/29 06:59:58;;;;;;;1.83;1.67;;;6.20;83.20;;;;;;4955683;28;20334;-74
2022/11/29 07:02:40;;;;;;;2.30;1.27;;;6.30;83.30;;;;;;4956913;28;20221;-74
2022/11/29 07:05:18;;;;;;;1.40;1.40;;;6.30;83.20;;;;;;4953471;28;20265;-74
2022/11/29 07:07:45;;;;;;;2.60;1.60;;;6.30;83.20;;;;;;4952499;28;20224;-74
2022/11/29 07:10:19;;;;;;;1.80;1.60;;;6.40;83.20;;;;;;4939753;28;20183;-74
2022/11/29 07:12:46;;;;;;;1.33;1.33;;;6.40;83.20;;;;;;4956360;28;20274;-73
2022/11/29 07:15:14;;;;;;;2.70;2.10;;;6.40;83.20;;;;;;4951588;28;20179;-73
2022/11/29 07:17:45;;;;;;;1.97;1.90;;;6.50;83.00;;;;;;4954807;28;20194;-74
2022/11/29 07:20:50;;;;;;;2.20;2.10;;;6.50;82.90;;;;;;4958082;28;20186;-74
2022/11/29 07:23:33;;;;;;;1.53;1.43;;;6.50;82.90;;;;;;4953299;28;20182;-74
2022/11/29 07:26:29;;;;;;;1.17;1.17;;;6.50;82.80;;;;;;4954259;28;20218;-74
2022/11/29 07:29:19;;;;;;;2.27;1.77;;;6.60;82.80;;;;;;4953396;28;20925;-73
2022/11/29 07:31:52;;;;;;;1.57;1.37;;;6.60;82.90;;;;;;4955314;28;20664;-74
2022/11/29 07:34:48;;;;;;;1.47;1.40;;;6.70;82.90;;;;;;4954523;28;20183;-74
2022/11/29 07:37:51;;;;;;;1.03;1.03;;;6.70;82.90;;;;;;4955642;28;20210;-74
2022/11/29 07:40:39;;;;;;;0.60;0.60;;;6.80;82.40;;;;;;4954896;28;20182;-73
2022/11/29 07:43:21;;;;;;;0.53;0.53;;;6.70;81.10;;;;;;4956754;28;20180;-74
2022/11/29 07:45:46;;;;;;;2.30;0.80;;;6.70;81.10;;;;;;4958835;28;20215;-74
2022/11/29 07:48:15;;;;;;;0.70;0.70;;;6.70;81.30;;;;;;4954855;28;20182;-74
2022/11/29 07:50:40;;;;;;;0.40;0.40;;;6.70;81.30;;;;;;4947962;28;20183;-74
2022/11/29 07:53:08;;;;;;;0.90;0.67;;;6.70;81.50;;;;;;4958222;28;20174;-73
2022/11/29 07:55:34;;;;;;;1.90;0.60;;;6.70;81.60;;;;;;4936871;28;21025;-74
2022/11/29 07:58:00;;;;;;;0.67;0.67;;;6.70;81.10;;;;;;4953120;28;20182;-73
2022/11/29 08:00:26;;;;;;;0.47;0.47;;;6.70;80.60;;;;;;4948808;28;20183;-74
2022/11/29 08:02:51;;;;;;;1.13;0.50;;;6.70;80.90;;;;;;4954900;28;20270;-74
2022/11/29 08:05:17;;;;;;;1.07;0.57;;;6.70;80.80;;;;;;4955496;28;20246;-73
2022/11/29 08:07:43;;;;;;;1.37;0.60;;;6.70;80.80;;;;;;4953755;28;20637;-74
2022/11/29 08:10:13;;;;;;;0.87;0.80;;;6.60;80.80;;;;;;4945642;28;20241;-73
2022/11/29 08:12:44;;;;;;;0.50;0.43;;;6.50;80.80;;;;;;4951138;28;20186;-74
2022/11/29 08:15:10;;;;;;;0.40;0.40;;;6.50;81.20;;;;;;4949614;28;20654;-74
2022/11/29 08:17:37;;;;;;;0.40;0.40;;;6.50;81.20;;;;;;4956107;28;20218;-73
2022/11/29 08:20:04;;;;;;;0.77;0.77;;;6.50;81.40;;;;;;4952726;28;20236;-74
2022/11/29 08:22:29;;;;;;;0.57;0.50;;;6.50;81.70;;;;;;4948800;28;20185;-73
2022/11/29 08:24:55;;;;;;;0.40;0.40;;;6.60;81.80;;;;;;4950936;28;20175;-74
2022/11/29 08:27:21;;;;;;;1.13;0.80;;;6.60;82.00;;;;;;4952620;28;20241;-74
2022/11/29 08:29:46;;;;;;;1.70;0.70;;;6.70;81.60;;;;;;4955838;28;20194;-73
2022/11/29 08:32:12;;;;;;;0.50;0.50;;;6.80;81.50;;;;;;4952782;28;20497;-74
2022/11/29 08:34:37;;;;;;;1.03;0.60;;;6.90;81.40;;;;;;4950612;28;20186;-74
2022/11/29 08:37:03;;;;;;;0.50;0.50;;;6.90;81.50;;;;;;4955072;28;20253;-74
2022/11/29 08:39:29;;;;;;;0.27;0.27;;;7.00;81.50;;;;;;4954653;28;20178;-73
2022/11/29 08:41:54;;;;;;;0.50;0.50;;;7.10;81.70;;;;;;4956304;28;20277;-74
2022/11/29 08:44:20;;;;;;;0.60;0.57;;;7.20;81.50;;;;;;4954601;28;20198;-74
2022/11/29 08:49:30;;;;;;;2.20;0.43;;;7.30;80.50;;;;;;4952887;28;20190;-74
2022/11/29 08:53:40;;;;;;;0.30;0.30;;;7.30;80.60;;;;;;4953080;28;20958;-73
2022/11/29 08:54:41;;;;;;;0.50;0.50;;;7.30;80.80;;;;;;4950126;28;20214;-74
2022/11/29 08:57:07;;;;;;;0.50;0.50;;;7.40;80.80;;;;;;4953708;28;20218;-74
2022/11/29 08:59:33;;;;;;;0.70;0.70;;;7.40;80.80;;;;;;4955391;28;20429;-74
2022/11/29 09:01:59;;;;;;;0.90;0.90;;;7.50;80.70;;;;;;4955870;28;20187;-74
2022/11/29 09:04:24;;;;;;;1.13;1.13;;;7.50;80.30;;;;;;4957263;28;20190;-74
2022/11/29 09:06:50;;;;;;;1.70;0.70;;;7.60;80.10;;;;;;4935555;28;20245;-74
2022/11/29 09:09:17;;;;;;;0.50;0.50;;;7.60;80.40;;;;;;4949009;28;20576;-73
2022/11/29 09:11:42;;;;;;;0.60;0.60;;;7.60;80.70;;;;;;4952534;28;20189;-74
2022/11/29 09:14:13;;;;;;;1.03;1.03;;;7.60;80.90;;;;;;4953389;28;20186;-74
2022/11/29 09:16:39;;;;;;;0.70;0.70;;;7.70;80.80;;;;;;4957345;28;20574;-74
2022/11/29 09:19:05;;;;;;;0.80;0.80;;;7.70;80.40;;;;;;4953640;28;20178;-74
2022/11/29 09:21:35;;;;;;;0.77;0.77;;;7.80;79.80;;;;;;4952771;28;20206;-74
2022/11/29 09:24:04;;;;;;;0.90;0.90;;;7.80;79.90;;;;;;4950491;28;20341;-74
2022/11/29 09:26:32;;;;;;;0.80;0.80;;;7.80;79.80;;;;;;4950123;28;20202;-74
2022/11/29 09:29:00;;;;;;;1.07;1.03;;;7.80;80.10;;;;;;4954480;28;20194;-74
2022/11/29 09:31:27;;;;;;;1.27;1.17;;;7.90;80.00;;;;;;4948850;28;20667;-74
2022/11/29 09:33:54;;;;;;;1.10;1.10;;;7.90;80.10;;;;;;4950363;28;20199;-73
2022/11/29 09:36:20;;;;;;;3.03;1.20;;;7.90;80.10;;;;;;4951768;28;20191;-74
2022/11/29 09:38:46;;;;;;;0.90;0.90;;;8.00;79.60;;;;;;4950707;28;20341;-74
2022/11/29 09:41:46;;;;;;;2.30;1.00;;;8.00;79.50;;;;;;4950968;28;20280;-74
2022/11/29 09:44:15;;;;;;;1.20;1.20;;;8.00;79.50;;;;;;4945866;28;20183;-73
2022/11/29 09:47:02;;;;;;;1.47;1.37;;;8.00;79.60;;;;;;4951187;28;20218;-73
2022/11/29 09:49:43;;;;;;;4.40;1.43;;;8.00;79.50;;;;;;4948895;28;20188;-73
2022/11/29 09:52:27;;;;;;;1.33;1.07;;;8.00;79.30;;;;;;4931170;28;20183;-74
2022/11/29 09:55:19;;;;;;;1.37;1.30;;;8.00;79.60;;;;;;4951402;28;20283;-74
2022/11/29 09:57:47;;;;;;;1.30;1.30;;;8.00;79.30;;;;;;4949099;28;20174;-73
2022/11/29 10:00:18;;;;;;;1.33;1.30;;;8.10;79.10;;;;;;4944019;28;20191;-74
2022/11/29 10:02:53;;;;;;;2.40;1.60;;;8.10;79.10;;;;;;4941696;28;20183;-74
2022/11/29 10:05:19;;;;;;;2.47;1.57;;;8.00;79.40;;;;;;4946573;28;20190;-74
2022/11/29 10:07:55;;;;;;;2.27;1.63;;;8.00;79.40;;;;;;4949895;28;20236;-74
2022/11/29 10:10:26;;;;;;;1.50;1.50;;;8.10;79.50;;;;;;4952423;28;20840;-75
2022/11/29 10:13:04;;;;;;;1.50;1.50;;;8.10;79.30;;;;;;4944547;28;20191;-75
2022/11/29 10:15:37;;;;;;;1.60;1.50;;;8.10;79.50;;;;;;4946648;28;20206;-74
2022/11/29 10:18:14;;;;;;;1.70;1.60;;;8.20;79.50;;;;;;4943185;28;20187;-74
2022/11/29 10:20:43;;;;;;;2.30;1.70;;;8.20;79.70;;;;;;4953269;28;20197;-74
2022/11/29 10:23:23;;;;;;;0.90;0.90;;;8.20;79.40;;;;;;4948570;28;20664;-74
2022/11/29 10:25:54;;;;;;;0.93;0.93;;;8.30;79.30;;;;;;4952077;28;20258;-74
2022/11/29 10:28:32;;;;;;;0.93;0.90;;;8.30;79.40;;;;;;4952825;28;20250;-74
2022/11/29 10:31:13;;;;;;;1.70;1.00;;;8.30;79.50;;;;;;4946125;28;20225;-74
2022/11/29 10:33:40;;;;;;;1.27;1.17;;;8.40;79.50;;;;;;4946126;28;20815;-74
2022/11/29 10:36:40;;;;;;;1.00;1.00;;;8.50;79.30;;;;;;4945627;28;20217;-75
2022/11/29 10:39:14;;;;;;;3.60;1.17;;;8.50;79.30;;;;;;4884482;29;20271;-74
2022/11/29 10:41:39;;;;;;;0.60;0.60;;;8.50;79.40;;;;;;4882714;29;20786;-74
2022/11/29 10:44:05;;;;;;;0.77;0.77;;;8.60;79.40;;;;;;4883681;29;20204;-73
2022/11/29 10:46:35;;;;;;;0.73;0.73;;;8.60;79.20;;;;;;4882257;29;20227;-74
2022/11/29 10:49:05;;;;;;;1.10;0.80;;;8.70;79.10;;;;;;4882475;29;20959;-74
2022/11/29 10:51:38;;;;;;;0.70;0.70;;;8.70;78.90;;;;;;4881349;29;20181;-74
2022/11/29 10:54:35;;;;;;;0.87;0.87;;;8.70;79.10;;;;;;4881768;29;20702;-74
2022/11/29 10:57:01;;;;;;;1.00;0.87;;;8.70;78.80;;;;;;4885691;29;20306;-74
2022/11/29 10:59:29;;;;;;;0.50;0.50;;;8.70;79.10;;;;;;4883533;29;20189;-74
2022/11/29 11:01:56;;;;;;;0.73;0.73;;;8.70;79.00;;;;;;4886320;29;20190;-74
2022/11/29 11:04:30;;;;;;;1.00;0.90;;;8.70;79.20;;;;;;4887380;29;20220;-75
2022/11/29 11:06:59;;;;;;;0.77;0.60;;;8.70;79.30;;;;;;4886435;29;20213;-75
2022/11/29 11:09:34;;;;;;;0.63;0.63;;;8.70;79.70;;;;;;4886331;29;20953;-75
2022/11/29 11:12:04;;;;;;;0.70;0.70;;;8.70;80.10;;;;;;4886643;29;20203;-75
2022/11/29 11:14:38;;;;;;;0.80;0.57;;;8.70;80.00;;;;;;4884021;29;20717;-75
2022/11/29 11:17:30;;;;;;;0.80;0.80;;;8.80;80.10;;;;;;4944781;28;20289;-75
2022/11/29 11:20:18;;;;;;;0.67;0.67;;;8.80;79.90;;;;;;4952379;28;20820;-75
2022/11/29 11:23:04;;;;;;;0.77;0.77;;;8.90;79.70;;;;;;4940542;28;20668;-75
2022/11/29 11:25:37;;;;;;;1.00;0.83;;;8.90;79.70;;;;;;4951219;28;20578;-75
2022/11/29 11:28:16;;;;;;;1.80;0.93;;;8.90;79.80;;;;;;4954403;28;20196;-75
2022/11/29 11:30:53;;;;;;;0.90;0.90;;;9.00;79.50;;;;;;4951021;28;20787;-74
2022/11/29 11:33:32;;;;;;;1.00;0.90;;;9.00;79.30;;;;;;4946837;28;20186;-75
2022/11/29 11:36:01;;;;;;;0.67;0.67;;;8.90;79.50;;;;;;4951683;28;20193;-74
2022/11/29 11:38:27;;;;;;;9.07;0.80;;;8.90;79.60;;;;;;4928641;28;20194;-76
2022/11/29 11:41:18;;;;;;;0.53;0.53;;;8.90;79.80;;;;;;4937575;28;20210;-74
2022/11/29 11:43:59;;;;;;;2.00;0.77;;;8.90;79.60;;;;;;4952500;28;20613;-74
2022/11/29 11:46:45;;;;;;;0.80;0.80;;;8.90;79.50;;;;;;4949124;28;20723;-74
2022/11/29 11:49:12;;;;;;;0.40;0.40;;;8.90;79.40;;;;;;4951911;28;20186;-74
2022/11/29 11:51:42;;;;;;;0.57;0.57;;;8.90;79.30;;;;;;4953477;28;20182;-74
2022/11/29 11:54:14;;;;;;;0.60;0.60;;;8.90;79.30;;;;;;4953985;28;20182;-75
2022/11/29 11:56:40;;;;;;;0.37;0.37;;;8.90;79.20;;;;;;4951398;28;20190;-74
2022/11/29 11:59:15;;;;;;;1.70;0.77;;;8.90;78.70;;;;;;4935910;28;20959;-73
2022/11/29 12:01:40;;;;;;;0.57;0.57;;;8.80;78.80;;;;;;4955313;28;20277;-74
2022/11/29 12:04:21;;;;;;;0.60;0.60;;;8.80;78.80;;;;;;4954721;28;20712;-74
2022/11/29 12:06:47;;;;;;;0.60;0.60;;;8.70;78.80;;;;;;4932970;28;20218;-74
2022/11/29 12:09:22;;;;;;;1.23;0.60;;;8.70;78.60;;;;;;4947582;28;20969;-74
2022/11/29 12:12:10;;;;;;;0.50;0.50;;;8.60;79.10;;;;;;4952487;28;21046;-74
2022/11/29 12:14:54;;;;;;;0.50;0.50;;;8.50;78.90;;;;;;4956604;28;20744;-75
2022/11/29 12:17:49;;;;;;;0.40;0.40;;;8.40;79.20;;;;;;4953073;28;20191;-73
2022/11/29 12:20:41;;;;;;;1.53;0.73;;;8.30;79.60;;;;;;4954386;28;20198;-74
2022/11/29 12:23:15;;;;;;;0.57;0.57;;;8.20;79.60;;;;;;4905311;29;20335;-74
2022/11/29 12:25:56;;;;;;;0.60;0.60;;;8.10;79.90;;;;;;4903729;29;20204;-74
2022/11/29 12:28:27;;;;;;;0.60;0.60;;;8.20;80.20;;;;;;4901805;29;20196;-74
2022/11/29 12:30:53;;;;;;;0.47;0.47;;;;;;;;;;4904959;29;20283;-74
2022/11/29 12:33:46;;;;;;;0.40;0.40;;;8.20;80.50;;;;;;4904325;29;20275;-74
2022/11/29 12:36:14;;;;;;;0.90;0.60;;;8.20;80.60;;;;;;4904274;29;20192;-75
2022/11/29 12:38:40;;;;;;;3.03;0.80;;;;;;;;;;4903989;29;20199;-75
2022/11/29 12:41:11;;;;;;;0.50;0.50;;;8.30;80.60;;;;;;4903686;29;20220;-75
2022/11/29 12:43:51;;;;;;;0.60;0.60;;;8.30;80.60;;;;;;4902616;29;20184;-75
2022/11/29 12:46:25;;;;;;;0.73;0.73;;;8.30;80.40;;;;;;4901085;29;20295;-75
2022/11/29 12:49:29;;;;;;;0.77;0.77;;;8.40;80.60;;;;;;4903920;29;20188;-75
2022/11/29 12:52:22;;;;;;;0.87;0.87;;;8.40;80.20;;;;;;4858869;29;20225;-75
2022/11/29 12:54:48;;;;;;;1.00;1.00;;;8.40;79.90;;;;;;4860778;29;20255;-75
2022/11/29 12:57:23;;;;;;;2.20;1.50;;;8.40;79.90;;;;;;4856481;29;20747;-75
2022/11/29 12:59:54;;;;;;;1.43;1.33;;;8.40;80.00;;;;;;4876724;29;20203;-75
2022/11/29 13:02:19;;;;;;;3.03;1.70;;;8.40;80.10;;;;;;4905941;29;20388;-74
2022/11/29 13:05:04;;;;;;;3.70;1.37;;;8.30;79.90;;;;;;4911513;29;20710;-75
2022/11/29 13:08:11;;;;;;;3.73;1.50;;;8.30;80.10;;;;;;4912030;29;20895;-75
2022/11/29 13:10:42;;;;;;;1.77;1.33;;;8.30;80.00;;;;;;4906960;29;20681;-75
2022/11/29 13:13:36;;;;;;;1.50;1.40;;;8.30;80.00;;;;;;4910454;29;20198;-75
2022/11/29 13:16:13;;;;;;;1.43;1.33;;;8.30;79.90;;;;;;4850284;29;20213;-75
2022/11/29 13:18:58;;;;;;;1.90;1.80;;;8.30;80.00;;;;;;4865652;29;20216;-74
2022/11/29 13:21:36;;;;;;;1.20;1.10;;;8.30;80.10;;;;;;4864663;29;20272;-75
2022/11/29 13:24:15;;;;;;;1.80;1.70;;;8.20;80.10;;;;;;4865623;29;20682;-73
2022/11/29 13:26:42;;;;;;;3.57;1.97;;;8.20;80.20;;;;;;4869392;29;20382;-74
2022/11/29 13:29:16;;;;;;;6.03;1.40;;;8.20;80.30;;;;;;4887750;29;20196;-73
2022/11/29 13:31:44;;;;;;;2.43;2.00;;;8.20;80.30;;;;;;4900123;29;20196;-73
2022/11/29 13:34:30;;;;;;;1.65;1.38;;;8.20;80.40;;;;;;4885949;29;21261;-73
2022/11/29 13:37:14;;;;;;;1.27;1.23;;;8.20;80.40;;;;;;4902698;29;20207;-76
2022/11/29 13:40:16;;;;;;;1.80;1.70;;;8.20;80.40;;;;;;4902845;29;20220;-75
2022/11/29 13:42:58;;;;;;;2.07;1.53;;;8.10;80.40;;;;;;4902705;29;20195;-75
2022/11/29 13:46:03;;;;;;;1.50;1.40;;;8.10;80.40;;;;;;4901776;29;20187;-74
2022/11/29 13:48:52;;;;;;;1.53;1.43;;;8.10;80.50;;;;;;4820146;29;20212;-75